Time;durP1;ratioP1;P1;durP2;ratioP2;P2;SDS_P1;SDS_P2;PMS_P1;PMS_P2;Temp;Humidity;BMP_temperature;BMP_pressure;BME280_temperature;BME280_humidity;BME280_pressure;Samples;Min_cycle;Max_cycle;Signal;HPM_P1;HPM_P2
2021/05/04 00:00:33;;;;;;;0.40;0.40;;;;;;;12.36;45.43;97983.47;3510376;28;20032;-71
2021/05/04 00:02:14;;;;;;;0.40;0.40;;;;;;;12.28;45.35;97983.91;3510251;28;20052;-73
2021/05/04 00:03:55;;;;;;;1.95;0.40;;;;;;;12.23;45.52;97979.28;3510132;28;20048;-72
2021/05/04 00:05:36;;;;;;;0.50;0.50;;;;;;;12.20;45.64;97988.59;3510211;28;20047;-71
2021/05/04 00:07:17;;;;;;;0.60;0.40;;;;;;;12.15;45.68;97985.88;3510413;28;20032;-72
2021/05/04 00:08:57;;;;;;;0.47;0.40;;;;;;;12.15;45.78;97985.06;3510597;28;20498;-72
2021/05/04 00:10:38;;;;;;;1.00;0.55;;;;;;;12.12;45.79;97981.03;3509418;28;20043;-71
2021/05/04 00:12:19;;;;;;;0.47;0.47;;;;;;;12.10;45.87;97977.78;3509918;28;20043;-71
2021/05/04 00:14:00;;;;;;;0.30;0.30;;;;;;;12.13;46.14;97980.00;3509679;28;20048;-72
2021/05/04 00:15:41;;;;;;;1.58;0.40;;;;;;;12.15;46.01;97975.19;3510116;28;20040;-72
2021/05/04 00:17:22;;;;;;;1.23;0.88;;;;;;;12.15;45.73;97969.84;3510320;28;20410;-70
2021/05/04 00:19:03;;;;;;;0.40;0.40;;;;;;;12.15;45.86;97975.19;3510193;28;20040;-73
2021/05/04 00:20:43;;;;;;;0.88;0.70;;;;;;;12.11;46.01;97955.38;3510489;28;20134;-72
2021/05/04 00:22:24;;;;;;;2.38;0.40;;;;;;;12.13;45.99;97955.13;3510101;28;20071;-72
2021/05/04 00:24:06;;;;;;;1.00;0.40;;;;;;;12.11;45.95;97942.03;3509970;28;20036;-72
2021/05/04 00:25:47;;;;;;;0.32;0.30;;;;;;;12.11;45.83;97954.59;3510378;28;20036;-73
2021/05/04 00:27:28;;;;;;;2.60;0.50;;;;;;;12.13;45.95;97958.63;3510369;28;20132;-71
2021/05/04 00:29:18;;;;;;;0.30;0.30;;;;;;;12.12;46.00;97954.31;3510236;28;20415;-72
2021/05/04 00:30:59;;;;;;;0.82;0.45;;;;;;;12.11;45.89;97947.38;3510041;28;20090;-72
2021/05/04 00:32:40;;;;;;;0.47;0.47;;;;;;;12.07;45.96;97956.94;3509032;28;20128;-73
2021/05/04 00:34:20;;;;;;;4.05;0.55;;;;;;;12.06;46.07;97938.50;3509271;28;20039;-71
2021/05/04 00:36:01;;;;;;;0.50;0.40;;;;;;;12.06;46.12;97947.31;3509885;28;20127;-73
2021/05/04 00:37:42;;;;;;;0.40;0.40;;;;;;;12.05;46.04;97942.22;3510135;28;20040;-72
2021/05/04 00:39:27;;;;;;;0.50;0.50;;;;;;;12.04;45.98;97945.94;3510011;28;20046;-71
2021/05/04 00:41:08;;;;;;;0.40;0.40;;;;;;;11.97;45.87;97938.91;3517183;28;20028;-73
2021/05/04 00:42:48;;;;;;;0.43;0.43;;;;;;;11.91;45.80;97934.56;3527402;28;20090;-71
2021/05/04 00:44:29;;;;;;;0.38;0.38;;;;;;;12.03;46.23;97950.47;3519870;28;20039;-72
2021/05/04 00:46:10;;;;;;;0.50;0.50;;;;;;;12.07;46.04;97946.25;3509179;28;20524;-71
2021/05/04 00:47:51;;;;;;;0.57;0.50;;;;;;;12.12;45.89;97948.97;3510208;28;20048;-72
2021/05/04 00:49:31;;;;;;;0.95;0.40;;;;;;;12.08;45.71;97947.88;3509896;28;20040;-72
2021/05/04 00:51:12;;;;;;;1.58;0.40;;;;;;;12.09;45.80;97952.16;3509978;28;20499;-73
2021/05/04 00:52:53;;;;;;;0.43;0.43;;;;;;;12.12;45.84;97943.63;3509775;28;20403;-72
2021/05/04 00:54:33;;;;;;;2.22;0.30;;;;;;;12.13;46.04;97937.25;3509916;28;20048;-71
2021/05/04 00:56:16;;;;;;;0.70;0.60;;;;;;;12.13;45.90;97931.91;3510146;28;20517;-73
2021/05/04 00:57:57;;;;;;;0.82;0.32;;;;;;;12.17;46.10;97934.88;3508913;28;20072;-72
2021/05/04 00:59:39;;;;;;;0.70;0.50;;;;;;;12.19;45.67;97930.91;3508405;28;20106;-72
2021/05/04 01:01:20;;;;;;;0.88;0.40;;;;;;;12.21;45.68;97936.81;3506248;28;20127;-71
2021/05/04 01:03:02;;;;;;;0.40;0.40;;;;;;;12.16;45.98;97933.28;3509545;28;20040;-74
2021/05/04 01:04:45;;;;;;;1.13;0.30;;;;;;;12.14;45.89;97927.38;3508825;28;20101;-71
2021/05/04 01:06:26;;;;;;;0.55;0.40;;;;;;;12.12;45.80;97932.97;3506495;28;20047;-71
2021/05/04 01:08:07;;;;;;;0.40;0.40;;;;;;;12.09;45.80;97938.00;3509218;28;20165;-71
2021/05/04 01:09:47;;;;;;;0.40;0.40;;;;;;;12.03;45.46;97929.13;3509880;28;20039;-71
2021/05/04 01:11:28;;;;;;;0.50;0.50;;;;;;;11.99;45.56;97927.97;3509796;28;20410;-71
2021/05/04 01:13:09;;;;;;;0.88;0.50;;;;;;;11.98;45.48;97921.03;3509911;28;20078;-72
2021/05/04 01:14:50;;;;;;;0.30;0.30;;;;;;;11.92;45.79;97922.81;3509985;28;20040;-71
2021/05/04 01:16:30;;;;;;;0.40;0.40;;;;;;;11.87;45.55;97919.28;3509530;28;20038;-71
2021/05/04 01:18:11;;;;;;;0.63;0.50;;;;;;;11.82;45.91;97916.50;3509801;28;20040;-72
2021/05/04 01:19:52;;;;;;;0.30;0.30;;;;;;;11.82;45.92;97908.50;3509660;28;20050;-72
2021/05/04 01:21:32;;;;;;;0.95;0.40;;;;;;;11.83;45.86;97910.13;3509162;28;20036;-71
2021/05/04 01:23:13;;;;;;;0.40;0.40;;;;;;;11.85;46.18;97908.00;3509985;28;20048;-71
2021/05/04 01:25:06;;;;;;;0.40;0.40;;;;;;;11.87;45.96;97905.94;3511593;28;20044;-71
2021/05/04 01:26:48;;;;;;;0.68;0.40;;;;;;;11.85;45.83;97908.00;3511381;28;20076;-72
2021/05/04 01:28:29;;;;;;;0.40;0.40;;;;;;;11.84;45.77;97895.72;3512048;28;20177;-73
2021/05/04 01:30:11;;;;;;;0.40;0.40;;;;;;;11.77;45.82;97891.38;3512399;28;20047;-71
2021/05/04 01:31:52;;;;;;;2.15;0.50;;;;;;;11.76;45.81;97891.59;3512386;28;20044;-72
2021/05/04 01:33:33;;;;;;;4.13;0.50;;;;;;;11.71;45.70;97889.66;3512091;28;20070;-71
2021/05/04 01:35:13;;;;;;;0.40;0.40;;;;;;;11.73;45.95;97887.56;3512020;28;20043;-72
2021/05/04 01:36:54;;;;;;;0.57;0.40;;;;;;;11.71;45.75;97884.34;3512129;28;20391;-73
2021/05/04 01:38:35;;;;;;;0.75;0.30;;;;;;;11.81;46.02;97885.53;3512054;28;20051;-72
2021/05/04 01:40:16;;;;;;;0.75;0.40;;;;;;;11.85;45.99;97890.16;3512396;28;20044;-72
2021/05/04 01:41:57;;;;;;;0.38;0.38;;;;;;;11.88;45.92;97875.53;3512272;28;20036;-71
2021/05/04 01:43:38;;;;;;;0.30;0.30;;;;;;;11.94;45.85;97880.66;3511904;28;20071;-72
2021/05/04 01:45:18;;;;;;;0.40;0.40;;;;;;;11.91;45.80;97883.03;3512453;28;20096;-71
2021/05/04 01:46:59;;;;;;;0.43;0.30;;;;;;;11.87;45.67;97872.03;3512254;28;20122;-72
2021/05/04 01:48:40;;;;;;;0.55;0.30;;;;;;;11.89;45.57;97879.78;3512547;28;20071;-71
2021/05/04 01:50:21;;;;;;;0.40;0.40;;;;;;;11.81;45.56;97877.53;3512509;28;20395;-72
2021/05/04 01:52:03;;;;;;;1.23;0.30;;;;;;;11.69;45.37;97889.09;3511802;28;20060;-72
2021/05/04 01:53:44;;;;;;;0.60;0.60;;;;;;;11.67;45.60;97888.56;3511896;28;20049;-72
2021/05/04 01:55:26;;;;;;;0.30;0.30;;;;;;;11.63;45.70;97886.63;3511998;28;20062;-73
2021/05/04 01:57:07;;;;;;;0.45;0.45;;;;;;;11.61;45.62;97886.88;3511932;28;20036;-70
2021/05/04 01:58:48;;;;;;;0.90;0.40;;;;;;;11.67;45.75;97883.22;3511625;28;20123;-72
2021/05/04 02:00:29;;;;;;;0.50;0.50;;;;;;;11.70;45.94;97885.41;3511822;28;20070;-71
2021/05/04 02:02:09;;;;;;;0.75;0.40;;;;;;;11.72;45.83;97885.97;3511486;28;20108;-73
2021/05/04 02:03:50;;;;;;;0.75;0.30;;;;;;;11.72;45.77;97888.63;3511849;28;20063;-71
2021/05/04 02:05:31;;;;;;;1.40;0.38;;;;;;;11.70;45.84;97881.94;3511658;28;20065;-72
2021/05/04 02:07:11;;;;;;;0.93;0.30;;;;;;;11.67;45.97;97872.56;3511731;28;20039;-72
2021/05/04 02:08:52;;;;;;;0.40;0.40;;;;;;;11.65;45.88;97877.31;3511691;28;20032;-72
2021/05/04 02:10:33;;;;;;;0.30;0.30;;;;;;;11.66;45.95;97886.13;3511597;28;20114;-72
2021/05/04 02:12:14;;;;;;;1.25;0.45;;;;;;;11.66;46.03;97870.91;3511853;28;20460;-71
2021/05/04 02:13:55;;;;;;;0.35;0.35;;;;;;;11.59;45.93;97875.66;3511617;28;20392;-71
2021/05/04 02:15:35;;;;;;;0.20;0.20;;;;;;;11.54;46.11;97879.06;3511613;28;20438;-72
2021/05/04 02:17:16;;;;;;;0.30;0.30;;;;;;;11.46;46.14;97863.47;3511708;28;20506;-72
2021/05/04 02:18:57;;;;;;;2.88;0.30;;;;;;;11.43;46.23;97866.59;3511590;28;20097;-72
2021/05/04 02:20:38;;;;;;;0.40;0.40;;;;;;;11.44;46.35;97857.56;3510868;28;20067;-71
2021/05/04 02:22:19;;;;;;;0.30;0.30;;;;;;;11.47;46.30;97870.41;3511796;28;20040;-72
2021/05/04 02:24:00;;;;;;;0.65;0.40;;;;;;;11.47;46.69;97857.06;3511598;28;20048;-71
2021/05/04 02:25:41;;;;;;;1.27;0.47;;;;;;;11.51;46.49;97858.19;3511354;28;20419;-72
2021/05/04 02:27:21;;;;;;;0.25;0.25;;;;;;;11.51;46.39;97860.88;3511384;28;20036;-73
2021/05/04 02:29:02;;;;;;;0.20;0.20;;;;;;;11.49;46.64;97849.63;3511214;28;20044;-71
2021/05/04 02:30:44;;;;;;;0.50;0.43;;;;;;;11.53;46.49;97857.94;3511626;28;20040;-74
2021/05/04 02:32:26;;;;;;;0.53;0.50;;;;;;;11.47;46.38;97866.94;3511575;28;20036;-72
2021/05/04 02:34:07;;;;;;;0.40;0.40;;;;;;;11.35;46.42;97859.81;3511050;28;20131;-71
2021/05/04 02:35:47;;;;;;;0.30;0.30;;;;;;;11.32;46.82;97862.97;3510499;28;20167;-70
2021/05/04 02:37:28;;;;;;;0.55;0.40;;;;;;;11.34;46.81;97860.09;3511301;28;20047;-72
2021/05/04 02:39:09;;;;;;;0.40;0.40;;;;;;;11.39;46.78;97870.81;3510157;28;20036;-71
2021/05/04 02:40:50;;;;;;;0.50;0.40;;;;;;;11.37;46.92;97856.91;3511030;28;20132;-72
2021/05/04 02:42:30;;;;;;;1.38;0.28;;;;;;;11.36;46.79;97852.66;3511348;28;20040;-73
2021/05/04 02:44:11;;;;;;;0.45;0.38;;;;;;;11.31;46.78;97858.72;3511145;28;20044;-71
2021/05/04 02:45:52;;;;;;;0.45;0.40;;;;;;;11.32;46.82;97854.97;3511214;28;20102;-72
2021/05/04 02:47:33;;;;;;;4.28;0.50;;;;;;;11.31;46.91;97869.38;3511215;28;20040;-72
2021/05/04 02:49:14;;;;;;;1.23;0.40;;;;;;;11.30;47.01;97853.59;3511432;28;20078;-73
2021/05/04 02:50:55;;;;;;;0.30;0.30;;;;;;;11.39;46.87;97848.69;3510338;28;20035;-71
2021/05/04 02:52:35;;;;;;;0.40;0.40;;;;;;;11.43;47.08;97865.78;3510416;28;20138;-72
2021/05/04 02:54:16;;;;;;;0.40;0.40;;;;;;;11.40;47.04;97844.94;3510721;28;20036;-71
2021/05/04 02:55:57;;;;;;;0.30;0.30;;;;;;;11.41;47.02;97862.56;3511116;28;20047;-71
2021/05/04 02:57:37;;;;;;;2.40;0.68;;;;;;;11.41;46.96;97862.56;3510920;28;20044;-71
2021/05/04 02:59:18;;;;;;;0.40;0.40;;;;;;;11.39;47.15;97860.16;3510361;28;20036;-71
2021/05/04 03:00:59;;;;;;;0.30;0.30;;;;;;;11.33;47.14;97855.78;3510847;28;20471;-71
2021/05/04 03:02:40;;;;;;;1.58;0.38;;;;;;;11.27;47.19;97862.09;3511087;28;20061;-71
2021/05/04 03:04:20;;;;;;;0.30;0.30;;;;;;;11.28;47.46;97858.38;3510763;28;20130;-72
2021/05/04 03:06:03;;;;;;;0.40;0.40;;;;;;;11.27;47.45;97864.78;3509651;28;20040;-71
2021/05/04 03:07:45;;;;;;;0.32;0.32;;;;;;;11.24;47.15;97863.41;3510688;28;20043;-71
2021/05/04 03:09:25;;;;;;;0.52;0.40;;;;;;;11.19;47.28;97870.50;3510875;28;20040;-74
2021/05/04 03:11:06;;;;;;;0.50;0.50;;;;;;;11.15;47.34;97870.19;3510603;28;20052;-73
2021/05/04 03:12:47;;;;;;;0.82;0.40;;;;;;;11.11;47.47;97853.88;3510814;28;20090;-73
2021/05/04 03:14:27;;;;;;;0.98;0.40;;;;;;;11.17;47.52;97860.09;3511325;28;20044;-71
2021/05/04 03:16:08;;;;;;;0.55;0.55;;;;;;;11.19;47.53;97851.84;3511126;28;20410;-71
2021/05/04 03:17:49;;;;;;;0.40;0.40;;;;;;;11.30;47.63;97862.41;3510676;28;20402;-72
2021/05/04 03:19:30;;;;;;;0.40;0.40;;;;;;;11.35;47.44;97870.50;3510900;28;20063;-72
2021/05/04 03:21:11;;;;;;;0.80;0.60;;;;;;;11.38;47.54;97857.72;3509871;28;20039;-73
2021/05/04 03:22:52;;;;;;;0.35;0.35;;;;;;;11.39;47.41;97854.81;3510652;28;20036;-71
2021/05/04 03:24:32;;;;;;;0.50;0.50;;;;;;;11.37;47.36;97861.44;3510533;28;20088;-72
2021/05/04 03:26:14;;;;;;;0.55;0.50;;;;;;;11.33;47.69;97861.94;3510659;28;20395;-72
2021/05/04 03:27:58;;;;;;;0.50;0.50;;;;;;;11.32;47.67;97860.31;3510768;28;20044;-71
2021/05/04 03:29:38;;;;;;;0.40;0.40;;;;;;;11.30;47.80;97867.75;3510593;28;20097;-72
2021/05/04 03:31:19;;;;;;;0.60;0.50;;;;;;;11.31;47.99;97873.91;3510198;28;20122;-71
2021/05/04 03:33:00;;;;;;;0.55;0.55;;;;;;;11.35;48.23;97865.16;3510799;28;20127;-71
2021/05/04 03:34:40;;;;;;;0.30;0.30;;;;;;;11.38;48.31;97885.19;3509974;28;20048;-72
2021/05/04 03:36:21;;;;;;;0.22;0.22;;;;;;;11.41;48.38;97878.56;3510253;28;20529;-72
2021/05/04 03:38:03;;;;;;;0.38;0.38;;;;;;;11.41;48.44;97867.91;3509479;28;20051;-72
2021/05/04 03:39:43;;;;;;;0.52;0.40;;;;;;;11.48;48.70;97873.88;3510516;28;20044;-71
2021/05/04 03:41:24;;;;;;;0.75;0.30;;;;;;;11.44;48.65;97872.75;3510595;28;20652;-73
2021/05/04 03:43:05;;;;;;;0.35;0.30;;;;;;;11.34;48.84;97876.88;3509614;28;20517;-71
2021/05/04 03:44:46;;;;;;;3.83;0.80;;;;;;;11.24;49.28;97879.41;3506691;28;20036;-72
2021/05/04 03:46:32;;;;;;;1.00;0.32;;;;;;;11.30;49.16;97867.75;3510215;28;20401;-73
2021/05/04 03:48:13;;;;;;;0.50;0.50;;;;;;;11.35;48.93;97875.03;3508404;28;20526;-71
2021/05/04 03:49:54;;;;;;;0.95;0.40;;;;;;;11.31;48.66;97868.56;3506821;28;20042;-74
2021/05/04 03:51:35;;;;;;;0.30;0.30;;;;;;;11.18;48.58;97869.72;3509944;28;20071;-72
2021/05/04 03:53:16;;;;;;;0.30;0.30;;;;;;;11.23;48.84;97861.78;3510450;28;20050;-72
2021/05/04 03:54:56;;;;;;;0.50;0.40;;;;;;;11.22;48.44;97854.81;3510463;28;20498;-72
2021/05/04 03:56:37;;;;;;;2.05;0.40;;;;;;;11.29;48.39;97866.13;3510358;28;20571;-71
2021/05/04 03:58:18;;;;;;;0.30;0.30;;;;;;;11.29;48.67;97862.66;3509976;28;20082;-72
2021/05/04 03:59:59;;;;;;;0.30;0.30;;;;;;;11.31;48.75;97869.38;3510572;28;20048;-72
2021/05/04 04:01:40;;;;;;;2.47;0.40;;;;;;;11.34;48.60;97860.88;3510558;28;20067;-72
2021/05/04 04:03:21;;;;;;;0.77;0.50;;;;;;;11.37;48.40;97850.78;3510408;28;20051;-71
2021/05/04 04:05:02;;;;;;;0.40;0.40;;;;;;;11.41;48.49;97847.38;3510112;28;20044;-72
2021/05/04 04:06:43;;;;;;;2.67;0.40;;;;;;;11.42;48.20;97843.66;3510199;28;20036;-71
2021/05/04 04:08:24;;;;;;;0.38;0.30;;;;;;;11.47;48.24;97854.41;3510379;28;20044;-72
2021/05/04 04:10:06;;;;;;;1.48;0.40;;;;;;;11.53;48.36;97847.28;3510322;28;20067;-72
2021/05/04 04:11:47;;;;;;;;;;;;;;;11.70;48.11;97850.72;3510635;28;20059;-71
2021/05/04 04:13:28;;;;;;;1.92;0.40;;;;;;;11.64;48.07;97851.72;3510224;28;19967;-72
2021/05/04 04:15:09;;;;;;;0.75;0.38;;;;;;;11.68;47.97;97834.13;3510167;28;20536;-71
2021/05/04 04:16:50;;;;;;;0.65;0.40;;;;;;;11.60;48.00;97844.44;3510272;28;20061;-72
2021/05/04 04:18:31;;;;;;;0.30;0.30;;;;;;;11.51;48.21;97836.03;3510222;28;20052;-72
2021/05/04 04:20:12;;;;;;;0.30;0.30;;;;;;;11.46;48.27;97836.78;3509099;28;20051;-71
2021/05/04 04:21:52;;;;;;;0.50;0.50;;;;;;;11.41;48.49;97831.38;3509909;28;20065;-72
2021/05/04 04:23:33;;;;;;;0.50;0.30;;;;;;;11.41;48.64;97833.22;3510118;28;20046;-73
2021/05/04 04:25:14;;;;;;;0.40;0.40;;;;;;;11.43;48.61;97845.25;3509118;28;20040;-72
2021/05/04 04:26:55;;;;;;;0.30;0.30;;;;;;;11.40;48.68;97837.75;3509441;28;20559;-72
2021/05/04 04:28:35;;;;;;;1.00;0.77;;;;;;;11.37;49.09;97843.59;3510028;28;20036;-72
2021/05/04 04:30:16;;;;;;;1.10;0.40;;;;;;;11.31;49.41;97849.91;3509942;28;20093;-72
2021/05/04 04:31:57;;;;;;;0.28;0.28;;;;;;;11.25;50.15;97846.34;3509013;28;20047;-72
2021/05/04 04:33:38;;;;;;;0.30;0.30;;;;;;;11.22;50.50;97838.81;3509772;28;20123;-73
2021/05/04 04:35:18;;;;;;;0.80;0.50;;;;;;;11.23;50.46;97828.97;3509222;28;20132;-71
2021/05/04 04:36:59;;;;;;;0.50;0.40;;;;;;;11.29;50.21;97841.34;3506178;28;20040;-73
2021/05/04 04:38:40;;;;;;;0.40;0.40;;;;;;;11.32;50.22;97844.31;3506391;28;20519;-72
2021/05/04 04:40:22;;;;;;;1.48;0.52;;;;;;;11.33;50.13;97837.94;3509879;28;20388;-70
2021/05/04 04:42:02;;;;;;;0.52;0.52;;;;;;;11.32;50.00;97830.97;3510049;28;20403;-71
2021/05/04 04:43:43;;;;;;;0.30;0.30;;;;;;;11.32;50.13;97846.97;3510160;28;20079;-72
2021/05/04 04:45:24;;;;;;;1.55;0.57;;;;;;;11.26;50.20;97839.16;3509974;28;20068;-73
2021/05/04 04:47:07;;;;;;;0.40;0.40;;;;;;;11.22;50.29;97832.69;3509719;28;20134;-71
2021/05/04 04:48:48;;;;;;;1.85;0.32;;;;;;;11.20;50.34;97824.94;3510050;28;20044;-73
2021/05/04 04:50:28;;;;;;;0.47;0.45;;;;;;;11.23;50.47;97843.13;3509933;28;20036;-73
2021/05/04 04:52:09;;;;;;;0.28;0.28;;;;;;;11.17;50.42;97841.41;3509581;28;20537;-71
2021/05/04 04:53:50;;;;;;;0.75;0.30;;;;;;;11.07;50.33;97838.59;3510148;28;20084;-72
2021/05/04 04:55:31;;;;;;;0.80;0.40;;;;;;;11.04;50.58;97847.09;3509233;28;20044;-73
2021/05/04 04:57:11;;;;;;;4.38;1.02;;;;;;;11.01;50.73;97850.25;3509680;28;20042;-72
2021/05/04 04:58:52;;;;;;;0.50;0.50;;;;;;;10.86;50.85;97819.63;3510307;28;20067;-72
2021/05/04 05:00:33;;;;;;;0.55;0.35;;;;;;;10.86;50.76;97835.59;3512525;28;20629;-71
2021/05/04 05:02:13;;;;;;;0.30;0.30;;;;;;;10.90;50.75;97831.41;3512706;28;20069;-72
2021/05/04 05:03:54;;;;;;;0.40;0.40;;;;;;;10.95;50.64;97844.03;3511545;28;20043;-72
2021/05/04 05:05:35;;;;;;;0.38;0.38;;;;;;;10.96;50.83;97839.50;3528729;28;20048;-72
2021/05/04 05:07:17;;;;;;;0.40;0.40;;;;;;;10.95;50.70;97838.69;3529467;28;20024;-72
2021/05/04 05:08:58;;;;;;;0.28;0.28;;;;;;;10.95;50.40;97837.91;3529785;28;20609;-70
2021/05/04 05:10:38;;;;;;;0.30;0.30;;;;;;;11.01;50.36;97828.91;3524494;28;20048;-72
2021/05/04 05:12:19;;;;;;;0.80;0.45;;;;;;;11.12;50.27;97831.47;3511092;28;20048;-72
2021/05/04 05:14:01;;;;;;;0.50;0.30;;;;;;;11.25;49.88;97827.66;3513893;28;20044;-71
2021/05/04 05:15:41;;;;;;;0.20;0.20;;;;;;;11.35;49.34;97827.81;3512577;28;20115;-71
2021/05/04 05:17:22;;;;;;;0.40;0.40;;;;;;;11.34;49.32;97814.75;3513097;28;20044;-70
2021/05/04 05:19:04;;;;;;;1.02;0.50;;;;;;;11.47;49.47;97818.91;3512949;28;20437;-72
2021/05/04 05:20:45;;;;;;;0.98;0.40;;;;;;;11.60;49.16;97818.56;3511046;28;20593;-72
2021/05/04 05:22:28;;;;;;;0.57;0.43;;;;;;;11.69;48.96;97806.38;3512505;28;20046;-72
2021/05/04 05:24:09;;;;;;;1.95;0.40;;;;;;;11.81;48.57;97794.78;3511948;28;20060;-74
2021/05/04 05:25:49;;;;;;;1.95;0.75;;;;;;;11.97;48.54;97823.28;3512235;28;20048;-72
2021/05/04 05:27:31;;;;;;;2.38;0.40;;;;;;;11.95;47.95;97798.69;3511168;28;20046;-72
2021/05/04 05:29:12;;;;;;;3.55;0.60;;;;;;;12.06;48.07;97811.13;3508889;28;20509;-72
2021/05/04 05:30:52;;;;;;;7.18;0.70;;;;;;;12.17;48.10;97802.16;3512029;28;20047;-72
2021/05/04 05:32:33;;;;;;;3.00;0.70;;;;;;;12.31;47.71;97797.22;3511977;28;20032;-72
2021/05/04 05:34:14;;;;;;;2.17;1.20;;;;;;;12.43;47.64;97805.09;3511551;28;20059;-72
2021/05/04 05:35:56;;;;;;;0.70;0.70;;;;;;;12.61;47.33;97802.03;3512330;28;20048;-72
2021/05/04 05:37:37;;;;;;;1.48;0.50;;;;;;;12.72;47.11;97799.47;3512179;28;20566;-73
2021/05/04 05:39:19;;;;;;;0.40;0.40;;;;;;;12.69;46.84;97792.75;3511034;28;20040;-73
2021/05/04 05:40:59;;;;;;;0.45;0.40;;;;;;;12.70;46.87;97791.72;3511979;28;20044;-73
2021/05/04 05:42:40;;;;;;;1.60;0.60;;;;;;;12.71;46.84;97795.97;3512218;28;20528;-72
2021/05/04 05:44:21;;;;;;;0.52;0.35;;;;;;;12.69;46.67;97775.91;3512046;28;20043;-72
2021/05/04 05:46:03;;;;;;;1.27;0.30;;;;;;;12.59;46.71;97784.66;3510942;28;20070;-72
2021/05/04 05:47:43;;;;;;;1.48;0.60;;;;;;;12.51;46.72;97796.59;3511959;28;20055;-73
2021/05/04 05:49:24;;;;;;;1.95;0.50;;;;;;;12.38;46.87;97797.81;3510561;28;20606;-72
2021/05/04 05:51:05;;;;;;;0.70;0.55;;;;;;;12.38;47.13;97797.03;3511667;28;20078;-73
2021/05/04 05:52:46;;;;;;;2.38;0.40;;;;;;;12.34;47.45;97811.94;3512418;28;20148;-72
2021/05/04 05:54:27;;;;;;;1.75;0.50;;;;;;;12.16;48.14;97815.78;3513256;28;20059;-72
2021/05/04 05:56:08;;;;;;;0.25;0.25;;;;;;;11.98;48.85;97831.06;3513566;28;20040;-72
2021/05/04 05:57:49;;;;;;;0.30;0.30;;;;;;;11.83;49.51;97828.19;3512331;28;20047;-71
2021/05/04 05:59:29;;;;;;;3.47;0.50;;;;;;;11.67;50.47;97839.69;3513130;28;20048;-73
2021/05/04 06:01:11;;;;;;;0.73;0.55;;;;;;;11.58;50.89;97847.34;3512038;28;20135;-72
2021/05/04 06:02:52;;;;;;;0.30;0.30;;;;;;;11.57;51.14;97843.88;3511641;28;20043;-72
2021/05/04 06:04:32;;;;;;;1.27;0.50;;;;;;;11.60;51.10;97839.09;3511783;28;20067;-73
2021/05/04 06:06:13;;;;;;;0.38;0.38;;;;;;;11.53;51.57;97844.59;3511458;28;20093;-72
2021/05/04 06:07:54;;;;;;;0.43;0.20;;;;;;;11.37;51.26;97842.78;3511339;28;20046;-73
2021/05/04 06:09:35;;;;;;;1.17;0.38;;;;;;;11.14;51.94;97832.03;3511524;28;20073;-73
2021/05/04 06:11:16;;;;;;;4.18;0.40;;;;;;;11.10;52.24;97835.44;3510827;28;20036;-72
2021/05/04 06:13:02;;;;;;;0.63;0.30;;;;;;;11.10;52.21;97830.94;3511651;28;20036;-72
2021/05/04 06:14:43;;;;;;;1.17;0.55;;;;;;;11.14;52.12;97834.72;3511487;28;20396;-71
2021/05/04 06:16:23;;;;;;;1.30;0.40;;;;;;;11.19;52.42;97828.66;3511639;28;20050;-71
2021/05/04 06:18:04;;;;;;;0.38;0.38;;;;;;;11.20;52.18;97834.78;3510912;28;20032;-72
2021/05/04 06:19:45;;;;;;;1.95;0.30;;;;;;;11.12;51.86;97831.47;3511789;28;20074;-72
2021/05/04 06:21:26;;;;;;;0.40;0.40;;;;;;;11.03;51.89;97824.16;3511734;28;20048;-72
2021/05/04 06:23:07;;;;;;;1.33;0.50;;;;;;;11.05;51.93;97825.53;3511374;28;20134;-72
2021/05/04 06:24:48;;;;;;;2.07;0.60;;;;;;;11.27;51.96;97822.09;3510482;28;20044;-72
2021/05/04 06:26:28;;;;;;;5.78;0.52;;;;;;;11.54;51.21;97820.34;3511376;28;20150;-74
2021/05/04 06:28:10;;;;;;;0.52;0.40;;;;;;;11.79;50.57;97817.19;3510306;28;20036;-72
2021/05/04 06:29:50;;;;;;;0.98;0.40;;;;;;;12.09;49.95;97805.28;3510580;28;20036;-73
2021/05/04 06:31:31;;;;;;;0.98;0.50;;;;;;;12.42;49.60;97819.50;3511496;28;20605;-72
2021/05/04 06:33:17;;;;;;;0.80;0.50;;;;;;;12.67;48.72;97810.91;3511115;28;20610;-74
2021/05/04 06:34:57;;;;;;;1.08;0.47;;;;;;;12.82;48.74;97816.38;3511485;28;20055;-72
2021/05/04 06:36:38;;;;;;;0.70;0.70;;;;;;;12.94;48.14;97813.53;3510265;28;20039;-73
2021/05/04 06:38:19;;;;;;;0.63;0.40;;;;;;;13.07;47.44;97829.16;3511096;28;20047;-73
2021/05/04 06:40:00;;;;;;;0.60;0.30;;;;;;;13.13;47.05;97808.59;3511464;28;20435;-73
2021/05/04 06:41:40;;;;;;;0.82;0.50;;;;;;;13.31;46.81;97820.78;3511139;28;20052;-71
2021/05/04 06:43:22;;;;;;;1.63;0.52;;;;;;;13.47;46.46;97817.09;3510713;28;20415;-73
2021/05/04 06:45:04;;;;;;;1.65;0.50;;;;;;;13.64;46.27;97819.63;3511008;28;20097;-73
2021/05/04 06:46:45;;;;;;;0.35;0.35;;;;;;;13.75;45.97;97820.47;3496118;28;20480;-72
2021/05/04 06:48:25;;;;;;;0.70;0.70;;;;;;;13.89;45.78;97810.91;3504864;28;20043;-73
2021/05/04 06:50:06;;;;;;;0.55;0.40;;;;;;;14.09;45.71;97803.97;3510805;28;20051;-72
2021/05/04 06:51:47;;;;;;;1.58;0.50;;;;;;;14.26;45.52;97812.59;3510959;28;20051;-72
2021/05/04 06:53:28;;;;;;;0.55;0.38;;;;;;;14.26;45.12;97820.66;3511063;28;20116;-74
2021/05/04 06:55:09;;;;;;;0.93;0.57;;;;;;;14.07;45.23;97803.44;3510893;28;20040;-72
2021/05/04 06:56:50;;;;;;;0.52;0.52;;;;;;;13.91;45.31;97806.09;3511136;28;20044;-73
2021/05/04 06:58:31;;;;;;;0.68;0.60;;;;;;;13.83;45.49;97821.84;3510121;28;20418;-74
2021/05/04 07:00:12;;;;;;;0.30;0.30;;;;;;;13.68;45.58;97819.91;3510734;28;20097;-73
2021/05/04 07:01:53;;;;;;;12.88;1.20;;;;;;;13.59;46.26;97845.56;3510934;28;20040;-72
2021/05/04 07:03:34;;;;;;;2.47;0.40;;;;;;;13.37;47.03;97845.69;3510780;28;20079;-72
2021/05/04 07:05:15;;;;;;;0.30;0.30;;;;;;;12.88;48.14;97863.50;3510777;28;20032;-72
2021/05/04 07:06:56;;;;;;;2.42;0.30;;;;;;;12.49;49.47;97873.53;3510843;28;20048;-72
2021/05/04 07:08:36;;;;;;;0.30;0.30;;;;;;;12.20;50.34;97867.63;3510803;28;20064;-72
2021/05/04 07:10:17;;;;;;;2.95;0.40;;;;;;;12.02;51.01;97865.28;3511031;28;20039;-73
2021/05/04 07:11:59;;;;;;;0.30;0.30;;;;;;;11.96;51.23;97870.56;3511055;28;20047;-73
2021/05/04 07:13:41;;;;;;;3.15;0.40;;;;;;;11.94;51.66;97861.19;3510927;28;20044;-73
2021/05/04 07:15:22;;;;;;;1.33;0.50;;;;;;;11.88;51.44;97872.84;3511016;28;20146;-72
2021/05/04 07:17:11;;;;;;;0.30;0.30;;;;;;;11.82;51.53;97869.25;3509992;28;20048;-73
2021/05/04 07:18:52;;;;;;;0.52;0.40;;;;;;;11.74;51.71;97870.50;3510783;28;20460;-73
2021/05/04 07:20:33;;;;;;;0.40;0.40;;;;;;;11.68;52.02;97874.16;3510469;28;20131;-73
2021/05/04 07:22:13;;;;;;;2.13;0.50;;;;;;;11.57;52.01;97878.56;3495511;28;20040;-73
2021/05/04 07:23:54;;;;;;;0.82;0.60;;;;;;;11.53;52.31;97865.94;3507369;28;20518;-73
2021/05/04 07:25:36;;;;;;;0.63;0.40;;;;;;;11.53;52.22;97861.41;3509067;28;20040;-73
2021/05/04 07:27:17;;;;;;;0.68;0.50;;;;;;;11.56;52.19;97870.78;3506965;28;20643;-72
2021/05/04 07:28:58;;;;;;;1.42;0.50;;;;;;;11.57;52.40;97864.41;3510382;28;20043;-72
2021/05/04 07:30:42;;;;;;;1.27;1.17;;;;;;;11.66;52.39;97864.78;3510610;28;20475;-73
2021/05/04 07:32:22;;;;;;;2.25;0.50;;;;;;;11.74;52.29;97854.47;3510746;28;20058;-73
2021/05/04 07:34:03;;;;;;;0.65;0.40;;;;;;;11.80;51.99;97858.03;3510324;28;20043;-73
2021/05/04 07:35:44;;;;;;;1.77;0.50;;;;;;;11.86;51.72;97853.56;3510410;28;20044;-72
2021/05/04 07:37:25;;;;;;;1.08;0.60;;;;;;;11.94;51.58;97861.19;3510559;28;20494;-72
2021/05/04 07:39:06;;;;;;;0.90;0.50;;;;;;;12.00;51.76;97849.50;3510363;28;20046;-72
2021/05/04 07:40:46;;;;;;;0.55;0.47;;;;;;;12.05;51.77;97851.41;3509158;28;20040;-73
2021/05/04 07:42:28;;;;;;;1.27;0.70;;;;;;;12.08;51.20;97841.06;3510443;28;20134;-72
2021/05/04 07:44:09;;;;;;;2.47;0.68;;;;;;;12.09;50.69;97855.22;3510241;28;20116;-72
2021/05/04 07:45:49;;;;;;;0.50;0.50;;;;;;;12.09;50.23;97845.34;3510194;28;20039;-74
2021/05/04 07:47:30;;;;;;;0.40;0.40;;;;;;;12.19;50.14;97858.81;3510207;28;20131;-73
2021/05/04 07:49:17;;;;;;;0.70;0.50;;;;;;;12.25;49.54;97851.66;3509212;28;20044;-73
2021/05/04 07:50:59;;;;;;;1.45;0.70;;;;;;;12.27;49.27;97857.56;3510011;28;20043;-72
2021/05/04 07:52:40;;;;;;;3.63;0.80;;;;;;;12.28;49.23;97863.69;3510080;28;20058;-72
2021/05/04 07:54:21;;;;;;;0.80;0.50;;;;;;;12.32;49.53;97864.81;3510114;28;20040;-72
2021/05/04 07:56:02;;;;;;;0.52;0.50;;;;;;;12.41;49.41;97871.31;3509476;28;20043;-72